createdAt,value
2023-04-16T00:01:02.694Z,23.1
2023-04-16T00:06:57.084Z,22.8
2023-04-16T00:12:47.955Z,22.5
2023-04-16T00:18:25.077Z,22.3
2023-04-16T00:24:16.247Z,22
2023-04-16T00:30:07.189Z,22.1
2023-04-16T00:35:43.999Z,24.1
2023-04-16T00:41:20.124Z,24
2023-04-16T00:47:11.852Z,23.2
2023-04-16T00:52:49.125Z,22.8
2023-04-16T00:58:25.177Z,22.5
2023-04-16T01:04:03.298Z,22.3
2023-04-16T01:09:24.813Z,22.1
2023-04-16T01:15:16.615Z,21.9
2023-04-16T01:20:52.988Z,22.1
2023-04-16T01:26:29.232Z,24.1
2023-04-16T01:31:50.307Z,23.8
2023-04-16T01:37:41.525Z,23.1
2023-04-16T01:43:17.544Z,22.6
2023-04-16T01:49:09.846Z,22.5
2023-04-16T01:55:00.787Z,22.3
2023-04-16T02:00:37.383Z,22
2023-04-16T02:06:30.417Z,21.8
2023-04-16T02:11:50.776Z,22.1
2023-04-16T02:17:42.985Z,23.9
2023-04-16T02:23:34.363Z,23.6
2023-04-16T02:29:25.187Z,22.9
2023-04-16T02:35:16.864Z,22.6
2023-04-16T02:41:08.318Z,22.4
2023-04-16T02:47:00.079Z,22.2
2023-04-16T02:52:51.985Z,21.9
2023-04-16T02:58:42.866Z,21.8
2023-04-16T03:04:19.548Z,22.6
2023-04-16T03:10:11.343Z,24.1
2023-04-16T03:15:47.505Z,23.3
2023-04-16T03:21:39.383Z,22.7
2023-04-16T03:27:31.378Z,22.5
2023-04-16T03:33:23.726Z,22.3
2023-04-16T03:39:14.842Z,22.1
2023-04-16T03:44:50.909Z,21.9
2023-04-16T03:50:27.190Z,21.8
2023-04-16T03:56:03.026Z,22.6
2023-04-16T04:01:55.107Z,23.9
2023-04-16T04:07:33.804Z,22.9
2023-04-16T04:13:25.426Z,22.6
2023-04-16T04:19:17.569Z,22.4
2023-04-16T04:25:19.467Z,22.1
2023-04-16T04:30:39.471Z,21.9
2023-04-16T04:36:31.902Z,21.7
2023-04-16T04:42:23.237Z,21.6
2023-04-16T04:48:16.563Z,22.9
2023-04-16T04:54:08.282Z,23.8
2023-04-16T04:59:49.366Z,23.2
2023-04-16T05:05:41.594Z,22.7
2023-04-16T05:11:33.369Z,22.7
2023-04-16T05:17:10.055Z,22.5
2023-04-16T05:22:46.820Z,22.3
2023-04-16T05:28:38.313Z,22.1
2023-04-16T05:34:31.641Z,22.1
2023-04-16T05:40:22.273Z,23.6
2023-04-16T05:46:17.332Z,23.6
2023-04-16T05:51:53.571Z,23.1
2023-04-16T05:57:44.389Z,22.8
2023-04-16T06:03:37.401Z,22.7
2023-04-16T06:09:14.659Z,22.6
2023-04-16T06:14:52.468Z,22.4
2023-04-16T06:20:29.223Z,22.2
2023-04-16T06:26:23.029Z,22.1
2023-04-16T06:32:25.303Z,23.2
2023-04-16T06:38:01.862Z,24.1
2023-04-16T06:43:53.936Z,23.4
2023-04-16T06:49:29.409Z,23
2023-04-16T06:55:06.584Z,22.8
2023-04-16T07:00:42.936Z,22.6
2023-04-16T07:06:36.061Z,22.4
2023-04-16T07:12:28.039Z,22.1
2023-04-16T07:18:20.769Z,21.9
2023-04-16T07:24:11.860Z,22.8
2023-04-16T07:30:02.998Z,23.9
2023-04-16T07:35:24.555Z,23.1
2023-04-16T07:41:17.300Z,22.9
2023-04-16T07:47:21.887Z,22.8
2023-04-16T07:53:13.260Z,22.6
2023-04-16T07:58:48.769Z,22.4
2023-04-16T08:04:43.310Z,22.1
2023-04-16T08:10:35.742Z,21.9
2023-04-16T08:16:27.008Z,22.7
2023-04-16T08:22:19.512Z,24.1
2023-04-16T08:28:24.071Z,23.2
2023-04-16T08:34:16.242Z,22.8
2023-04-16T08:40:08.072Z,22.6
2023-04-16T08:45:59.922Z,22.4
2023-04-16T08:51:36.225Z,22.2
2023-04-16T08:57:28.646Z,22
2023-04-16T09:03:22.090Z,22.5
2023-04-16T09:09:13.740Z,24.3
2023-04-16T09:15:05.473Z,23.4
2023-04-16T09:20:57.728Z,22.8
2023-04-16T09:26:34.175Z,22.5
2023-04-16T09:32:28.128Z,22.3
2023-04-16T09:38:20.075Z,22.3
2023-04-16T09:43:57.323Z,22
2023-04-16T09:49:38.277Z,22.6
2023-04-16T09:55:31.514Z,24.4
2023-04-16T10:01:23.615Z,23.3
2023-04-16T10:07:37.955Z,22.8
2023-04-16T10:13:29.496Z,22.5
2023-04-16T10:19:20.580Z,21.9
2023-04-16T10:25:12.837Z,21.4
2023-04-16T10:31:05.377Z,21.3
2023-04-16T10:36:54.089Z,20.9
2023-04-16T10:42:47.793Z,21.2
2023-04-16T10:48:49.523Z,21.4
2023-04-16T10:54:41.794Z,21.3
2023-04-16T11:06:13.777Z,21.1
2023-04-16T11:12:13.255Z,20.9
2023-04-16T11:18:06.078Z,20.8
2023-04-16T11:24:16.061Z,20.8
2023-04-16T11:30:06.653Z,20.8
2023-04-16T11:35:58.403Z,20.7
2023-04-16T11:41:49.336Z,20.6
2023-04-16T11:47:51.467Z,20.6
2023-04-16T11:53:45.940Z,20.5
2023-04-16T11:59:24.548Z,20.5
2023-04-16T12:05:43.998Z,20.4
2023-04-16T12:11:36.234Z,20.4
2023-04-16T12:17:27.745Z,20.4
2023-04-16T12:23:03.537Z,20.4
2023-04-16T12:28:42.149Z,20.4
2023-04-16T12:34:20.985Z,20.3
2023-04-16T12:40:22.699Z,20.3
2023-04-16T12:46:14.072Z,20.3
2023-04-16T12:52:05.979Z,20.3
2023-04-16T12:57:58.818Z,20.3
2023-04-16T13:03:52.535Z,20.3
2023-04-16T13:09:45.802Z,20.2
2023-04-16T13:15:37.395Z,20.2
2023-04-16T13:21:30.394Z,20.2
2023-04-16T13:27:22.692Z,20.2
2023-04-16T13:33:17.567Z,20.2
2023-04-16T13:39:12.052Z,20.1
2023-04-16T13:44:48.853Z,20.1
2023-04-16T13:50:25.720Z,20.1
2023-04-16T13:56:03.156Z,20.1
2023-04-16T14:01:39.623Z,20.1
2023-04-16T14:07:01.147Z,20.1
2023-04-16T14:12:06.370Z,20.1
2023-04-16T14:17:27.782Z,20
2023-04-16T14:23:18.817Z,19.9
2023-04-16T14:29:10.432Z,19.6
2023-04-16T14:35:02.925Z,19.6
2023-04-16T14:40:39.331Z,19.6
2023-04-16T14:46:30.819Z,19.3
2023-04-16T18:59:16.480Z,19.3
2023-04-16T19:04:53.717Z,19.3
2023-04-16T19:10:44.104Z,19.3
2023-04-16T19:16:23.065Z,19.3
2023-04-16T19:21:58.971Z,19.3
2023-04-16T19:27:51.612Z,19.2
2023-04-16T19:33:45.005Z,19.3
2023-04-16T19:39:36.690Z,19.2
2023-04-16T19:45:26.848Z,19.2
2023-04-16T19:51:19.148Z,19.3
2023-04-16T19:57:10.274Z,19.3
2023-04-16T20:03:01.378Z,19.4
2023-04-16T20:08:53.693Z,19.4
2023-04-16T20:14:44.842Z,19.4
2023-04-16T20:20:41.642Z,21.4
2023-04-16T20:26:34.016Z,24.6
2023-04-16T20:32:26.667Z,26
2023-04-16T20:38:17.756Z,24.4
2023-04-16T20:44:13.149Z,23.3
2023-04-16T20:49:49.780Z,24.6
2023-04-16T20:55:40.787Z,24.1
2023-04-16T21:01:34.398Z,22.8
2023-04-16T21:07:27.788Z,22.6
2023-04-16T21:13:02.482Z,24.3
2023-04-16T21:18:24.088Z,24.1
2023-04-16T21:24:00.053Z,23.2
2023-04-16T21:29:36.606Z,22.6
2023-04-16T21:35:28.625Z,22.9
2023-04-16T21:40:49.322Z,24.2
2023-04-16T21:46:25.794Z,24.6
2023-04-16T21:52:18.922Z,23.5
2023-04-16T21:57:55.434Z,23
2023-04-16T22:03:48.331Z,22.8
2023-04-16T22:09:56.034Z,24.1
2023-04-16T22:16:05.279Z,24.6
2023-04-16T22:21:56.720Z,23.4
2023-04-16T22:27:48.788Z,22.9
2023-04-16T22:33:39.885Z,22.7
2023-04-16T22:39:30.804Z,23.7
2023-04-16T22:45:23.020Z,25
2023-04-16T22:51:14.650Z,23.6
2023-04-16T22:56:49.577Z,23
2023-04-16T23:02:42.612Z,22.7
2023-04-16T23:08:34.582Z,22.6
2023-04-16T23:14:10.137Z,24.1
2023-04-16T23:19:47.320Z,24.1
2023-04-16T23:24:52.574Z,23.3
2023-04-16T23:30:28.249Z,22.9
2023-04-16T23:36:20.688Z,22.8
2023-04-16T23:42:12.579Z,22.6
2023-04-16T23:47:32.891Z,24.3
2023-04-16T23:53:09.787Z,24.1
2023-04-16T23:58:46.435Z,23.4
